createdAt,value
2023-01-04T00:02:36.758Z,20.50
2023-01-04T00:05:29.378Z,20.50
2023-01-04T00:08:26.521Z,20.50
2023-01-04T00:11:22.214Z,20.50
2023-01-04T00:14:17.257Z,20.50
2023-01-04T00:17:10.743Z,20.50
2023-01-04T00:20:04.026Z,20.50
2023-01-04T00:22:58.531Z,20.50
2023-01-04T00:25:53.100Z,20.50
2023-01-04T00:28:53.567Z,20.50
2023-01-04T00:31:47.771Z,20.50
2023-01-04T00:34:40.910Z,20.50
2023-01-04T00:37:33.822Z,20.50
2023-01-04T00:40:26.583Z,20.40
2023-01-04T00:43:20.659Z,20.40
2023-01-04T00:46:13.716Z,20.40
2023-01-04T00:49:07.535Z,20.40
2023-01-04T00:52:01.299Z,20.40
2023-01-04T00:54:54.760Z,20.40
2023-01-04T00:57:47.595Z,20.40
2023-01-04T01:00:42.451Z,20.40
2023-01-04T01:03:38.699Z,20.40
2023-01-04T01:06:32.948Z,20.40
2023-01-04T01:09:25.731Z,20.40
2023-01-04T01:12:18.407Z,20.40
2023-01-04T01:15:12.689Z,20.30
2023-01-04T01:18:07.053Z,20.30
2023-01-04T01:21:00.873Z,20.30
2023-01-04T01:23:54.968Z,20.30
2023-01-04T01:26:47.754Z,20.30
2023-01-04T01:29:40.361Z,20.30
2023-01-04T01:32:33.325Z,20.30
2023-01-04T01:35:27.955Z,20.30
2023-01-04T01:38:21.088Z,20.30
2023-01-04T01:41:19.737Z,20.30
2023-01-04T01:44:46.367Z,20.30
2023-01-04T01:47:43.776Z,20.30
2023-01-04T01:50:41.447Z,20.20
2023-01-04T01:53:37.944Z,20.20
2023-01-04T01:56:31.855Z,20.20
2023-01-04T01:59:25.947Z,20.20
2023-01-04T02:02:19.445Z,20.20
2023-01-04T02:05:13.786Z,20.20
2023-01-04T02:08:10.138Z,20.20
2023-01-04T02:11:04.673Z,20.10
2023-01-04T02:14:16.615Z,20.10
2023-01-04T02:17:17.248Z,20.10
2023-01-04T02:20:34.049Z,20.10
2023-01-04T02:24:13.288Z,20.10
2023-01-04T02:27:33.384Z,20.10
2023-01-04T02:31:05.244Z,20.10
2023-01-04T02:34:06.575Z,20.10
2023-01-04T02:37:05.684Z,20.10
2023-01-04T02:40:08.942Z,20.10
2023-01-04T02:43:27.909Z,20.10
2023-01-04T02:46:26.812Z,20.10
2023-01-04T02:49:38.468Z,20.10
2023-01-04T02:52:31.676Z,20.10
2023-01-04T02:55:26.713Z,20.00
2023-01-04T02:58:37.204Z,20.00
2023-01-04T03:02:04.131Z,20.00
2023-01-04T03:05:27.993Z,20.00
2023-01-04T03:08:29.124Z,20.00
2023-01-04T03:11:41.437Z,20.10
2023-01-04T03:14:39.610Z,20.00
2023-01-04T03:17:38.538Z,20.00
2023-01-04T03:20:33.653Z,20.00
2023-01-04T03:23:48.376Z,20.00
2023-01-04T03:27:03.537Z,20.00
2023-01-04T03:30:19.866Z,20.00
2023-01-04T03:33:35.103Z,20.00
2023-01-04T03:36:47.104Z,20.00
2023-01-04T03:40:14.428Z,20.00
2023-01-04T03:43:30.417Z,20.00
2023-01-04T03:46:49.314Z,20.00
2023-01-04T03:49:48.238Z,19.90
2023-01-04T03:52:46.035Z,19.90
2023-01-04T03:55:40.766Z,20.00
2023-01-04T03:58:33.935Z,19.90
2023-01-04T04:01:28.519Z,20.00
2023-01-04T04:04:39.624Z,19.90
2023-01-04T04:07:50.327Z,19.90
2023-01-04T04:10:45.299Z,19.90
2023-01-04T04:13:38.929Z,19.90
2023-01-04T04:16:31.931Z,19.90
2023-01-04T04:19:24.670Z,19.90
2023-01-04T04:22:17.815Z,19.90
2023-01-04T04:25:11.021Z,19.90
2023-01-04T04:28:06.159Z,19.90
2023-01-04T04:30:58.952Z,19.90
2023-01-04T04:33:51.942Z,19.80
2023-01-04T04:36:44.993Z,19.90
2023-01-04T04:39:37.964Z,19.80
2023-01-04T04:42:29.988Z,19.90
2023-01-04T04:45:24.298Z,19.80
2023-01-04T04:48:17.721Z,19.90
2023-01-04T04:51:11.079Z,19.80
2023-01-04T04:54:03.926Z,19.80
2023-01-04T04:56:57.077Z,19.80
2023-01-04T04:59:49.932Z,19.80
2023-01-04T05:02:44.453Z,19.80
2023-01-04T05:05:37.734Z,19.80
2023-01-04T05:08:31.313Z,19.80
2023-01-04T05:11:38.983Z,19.80
2023-01-04T05:14:32.256Z,19.80
2023-01-04T05:17:25.740Z,19.80
2023-01-04T05:20:20.216Z,19.80
2023-01-04T05:23:15.194Z,19.80
2023-01-04T05:26:08.876Z,19.70
2023-01-04T05:29:01.687Z,19.80
2023-01-04T05:31:53.711Z,19.70
2023-01-04T05:34:46.833Z,19.70
2023-01-04T05:37:41.138Z,19.70
2023-01-04T05:40:33.874Z,19.70
2023-01-04T05:43:26.649Z,19.70
2023-01-04T05:46:19.709Z,19.70
2023-01-04T05:49:12.896Z,19.70
2023-01-04T05:52:06.452Z,19.70
2023-01-04T05:55:02.945Z,19.70
2023-01-04T05:57:55.908Z,19.60
2023-01-04T06:00:48.607Z,19.70
2023-01-04T06:03:41.954Z,19.70
2023-01-04T06:06:35.023Z,19.60
2023-01-04T06:09:28.283Z,19.70
2023-01-04T06:12:23.557Z,19.70
2023-01-04T06:15:17.339Z,19.70
2023-01-04T06:18:13.868Z,19.60
2023-01-04T06:21:06.871Z,19.60
2023-01-04T06:23:59.852Z,19.60
2023-01-04T06:26:53.708Z,19.60
2023-01-04T06:29:48.395Z,19.60
2023-01-04T06:32:41.939Z,19.60
2023-01-04T06:35:36.022Z,19.60
2023-01-04T06:38:29.165Z,19.60
2023-01-04T06:41:21.481Z,19.60
2023-01-04T06:44:14.900Z,19.60
2023-01-04T06:47:09.065Z,19.60
2023-01-04T06:50:02.128Z,19.60
2023-01-04T06:52:55.010Z,19.50
2023-01-04T06:55:48.308Z,19.60
2023-01-04T06:58:42.426Z,19.60
2023-01-04T07:01:36.260Z,19.60
2023-01-04T07:04:31.095Z,19.60
2023-01-04T07:07:24.183Z,19.60
2023-01-04T07:10:16.755Z,19.50
2023-01-04T07:13:10.316Z,19.50
2023-01-04T07:16:04.085Z,19.50
2023-01-04T07:18:56.684Z,19.50
2023-01-04T07:21:51.238Z,19.50
2023-01-04T07:24:44.245Z,19.40
2023-01-04T07:27:36.792Z,19.50
2023-01-04T07:30:30.242Z,19.50
2023-01-04T07:33:24.056Z,19.50
2023-01-04T07:36:17.002Z,19.40
2023-01-04T07:39:12.548Z,19.50
2023-01-04T07:42:05.886Z,19.60
2023-01-04T07:44:59.033Z,19.70
2023-01-04T07:47:52.195Z,19.70
2023-01-04T07:50:46.121Z,19.70
2023-01-04T07:53:38.974Z,19.80
2023-01-04T07:56:33.329Z,19.90
2023-01-04T07:59:27.237Z,19.90
2023-01-04T08:02:20.361Z,20.00
2023-01-04T08:05:13.824Z,20.10
2023-01-04T08:08:07.005Z,20.10
2023-01-04T08:11:02.854Z,20.20
2023-01-04T08:13:57.691Z,20.30
2023-01-04T08:16:51.254Z,20.30
2023-01-04T08:19:46.718Z,20.40
2023-01-04T08:22:40.306Z,20.40
2023-01-04T08:25:33.891Z,20.50
2023-01-04T08:28:26.551Z,20.50
2023-01-04T08:31:24.657Z,20.60
2023-01-04T08:34:18.281Z,20.60
2023-01-04T08:37:11.242Z,20.70
2023-01-04T08:40:04.332Z,20.70
2023-01-04T08:42:57.008Z,20.80
2023-01-04T08:45:49.981Z,20.80
2023-01-04T08:48:44.518Z,20.90
2023-01-04T08:51:38.035Z,21.00
2023-01-04T08:54:31.142Z,21.00
2023-01-04T08:57:23.987Z,21.00
2023-01-04T09:00:21.552Z,21.00
2023-01-04T09:03:15.297Z,21.10
2023-01-04T09:06:11.159Z,21.10
2023-01-04T09:09:04.588Z,21.20
2023-01-04T09:11:59.549Z,21.20
2023-01-04T09:14:52.947Z,21.20
2023-01-04T09:18:20.667Z,21.30
2023-01-04T09:21:01.414Z,21.30
2023-01-04T09:23:57.876Z,21.30
2023-01-04T09:26:51.234Z,21.30
2023-01-04T09:29:44.053Z,21.20
2023-01-04T09:32:36.875Z,21.30
2023-01-04T09:35:30.304Z,21.20
2023-01-04T09:38:23.101Z,21.20
2023-01-04T09:41:26.816Z,21.30
2023-01-04T09:44:54.353Z,21.40
2023-01-04T09:47:47.452Z,21.40
2023-01-04T09:50:49.612Z,21.50
2023-01-04T09:53:47.566Z,21.50
2023-01-04T09:56:52.537Z,21.60
2023-01-04T09:59:47.725Z,21.60
2023-01-04T10:02:44.249Z,21.70
2023-01-04T10:05:36.997Z,21.70
2023-01-04T10:08:31.555Z,21.70
2023-01-04T10:11:39.156Z,21.80
2023-01-04T10:14:47.214Z,21.80
2023-01-04T10:21:34.095Z,21.90
2023-01-04T10:24:43.460Z,21.80
2023-01-04T10:27:47.626Z,21.90
2023-01-04T10:30:49.026Z,21.90
2023-01-04T10:33:47.666Z,21.90
2023-01-04T10:36:41.788Z,21.90
2023-01-04T10:39:37.182Z,22.00
2023-01-04T10:42:34.911Z,22.00
2023-01-04T10:45:37.541Z,22.00
2023-01-04T10:48:39.135Z,22.00
2023-01-04T10:51:37.353Z,22.10
2023-01-04T10:54:34.904Z,22.10
2023-01-04T10:57:35.266Z,22.10
2023-01-04T11:00:31.814Z,22.10
2023-01-04T11:03:30.793Z,22.20
2023-01-04T11:06:30.057Z,22.20
2023-01-04T11:09:27.327Z,22.20
2023-01-04T11:12:23.138Z,22.20
2023-01-04T11:15:16.833Z,22.20
2023-01-04T11:18:13.963Z,22.30
2023-01-04T11:21:10.336Z,22.30
2023-01-04T11:24:30.830Z,22.30
2023-01-04T11:27:27.322Z,22.30
2023-01-04T11:30:23.635Z,22.40
2023-01-04T11:33:20.152Z,22.40
2023-01-04T11:36:34.949Z,22.40
2023-01-04T11:39:29.477Z,22.40
2023-01-04T11:42:23.116Z,22.50
2023-01-04T11:45:25.092Z,22.50
2023-01-04T11:48:18.309Z,22.50
2023-01-04T11:51:20.164Z,22.50
2023-01-04T11:54:21.199Z,22.60
2023-01-04T11:57:21.706Z,22.60
2023-01-04T12:00:17.935Z,22.60
2023-01-04T12:03:13.564Z,22.60
2023-01-04T12:06:14.971Z,22.70
2023-01-04T12:09:15.038Z,22.70
2023-01-04T12:12:13.935Z,22.70
2023-01-04T12:15:18.828Z,22.70
2023-01-04T12:18:16.586Z,22.70
2023-01-04T12:21:17.594Z,22.70
2023-01-04T12:24:14.471Z,22.70
2023-01-04T12:27:15.721Z,22.80
2023-01-04T12:30:36.186Z,22.80
2023-01-04T12:33:40.305Z,22.80
2023-01-04T12:37:03.100Z,22.80
2023-01-04T12:39:58.391Z,22.80
2023-01-04T12:43:19.392Z,22.80
2023-01-04T12:46:59.142Z,22.90
2023-01-04T12:50:00.269Z,22.90
2023-01-04T12:53:19.471Z,22.90
2023-01-04T12:56:07.387Z,22.90
2023-01-04T12:59:31.910Z,22.90
2023-01-04T13:02:27.823Z,23.00
2023-01-04T13:08:52.792Z,23.00
2023-01-04T13:12:15.857Z,23.00
2023-01-04T13:15:19.516Z,23.00
2023-01-04T13:18:33.931Z,23.10
2023-01-04T13:21:30.725Z,23.10
2023-01-04T13:24:28.165Z,23.10
2023-01-04T13:27:23.144Z,23.10
2023-01-04T13:30:30.495Z,23.20
2023-01-04T13:33:28.721Z,23.20
2023-01-04T13:36:22.579Z,23.20
2023-01-04T13:39:15.667Z,23.20
2023-01-04T13:42:17.193Z,23.20
2023-01-04T13:45:43.162Z,23.20
2023-01-04T13:48:41.433Z,23.20
2023-01-04T13:51:37.815Z,23.20
2023-01-04T13:54:35.394Z,23.30
2023-01-04T13:57:28.545Z,23.30
2023-01-04T14:00:21.500Z,23.30
2023-01-04T14:03:31.524Z,23.20
2023-01-04T14:06:29.465Z,23.30
2023-01-04T14:09:25.867Z,23.30
2023-01-04T14:12:23.265Z,23.30
2023-01-04T14:15:22.371Z,23.30
2023-01-04T14:18:28.308Z,23.30
2023-01-04T14:21:37.346Z,23.30
2023-01-04T14:27:46.336Z,23.40
2023-01-04T14:30:39.326Z,23.40
2023-01-04T14:33:33.837Z,23.40
2023-01-04T14:36:29.940Z,23.40
2023-01-04T14:39:33.882Z,23.40
2023-01-04T14:42:28.999Z,23.40
2023-01-04T14:45:22.774Z,23.40
2023-01-04T14:48:23.515Z,23.50
2023-01-04T14:51:19.284Z,23.50
2023-01-04T14:54:18.864Z,23.50
2023-01-04T14:57:16.762Z,23.50
2023-01-04T15:00:18.917Z,23.50
2023-01-04T15:03:12.701Z,23.50
2023-01-04T15:06:07.155Z,23.50
2023-01-04T15:09:00.284Z,23.50
2023-01-04T15:11:53.643Z,23.60
2023-01-04T15:14:47.978Z,23.60
2023-01-04T15:17:41.545Z,23.60
2023-01-04T15:20:34.434Z,23.60
2023-01-04T15:23:27.509Z,23.60
2023-01-04T15:26:20.214Z,23.60
2023-01-04T15:29:13.534Z,23.60
2023-01-04T15:32:07.966Z,23.60
2023-01-04T15:35:01.697Z,23.60
2023-01-04T15:37:55.405Z,23.70
2023-01-04T15:40:50.001Z,23.60
2023-01-04T15:43:43.556Z,23.70
2023-01-04T15:46:36.534Z,23.60
2023-01-04T15:49:31.820Z,23.70
2023-01-04T15:52:25.601Z,23.70
2023-01-04T15:55:18.721Z,23.70
2023-01-04T15:58:12.664Z,23.70
2023-01-04T16:01:09.794Z,23.70
2023-01-04T16:04:03.719Z,23.70
2023-01-04T16:06:58.817Z,23.70
2023-01-04T16:09:52.531Z,23.70
2023-01-04T16:12:49.863Z,23.70
2023-01-04T16:15:46.437Z,23.70
2023-01-04T16:18:39.957Z,23.70
2023-01-04T16:21:33.229Z,23.70
2023-01-04T16:27:42.084Z,23.70
2023-01-04T16:30:35.869Z,23.70
2023-01-04T16:33:29.993Z,23.70
2023-01-04T16:36:23.449Z,23.60
2023-01-04T16:39:17.051Z,23.60
2023-01-04T16:42:11.708Z,23.60
2023-01-04T16:45:05.135Z,23.50
2023-01-04T16:48:01.240Z,23.50
2023-01-04T16:50:54.672Z,23.50
2023-01-04T16:53:47.616Z,23.40
2023-01-04T16:56:43.331Z,23.40
2023-01-04T16:59:37.825Z,23.40
2023-01-04T17:02:31.768Z,23.30
2023-01-04T17:05:25.502Z,23.30
2023-01-04T17:08:23.614Z,23.30
2023-01-04T17:14:37.097Z,23.20
2023-01-04T17:17:30.616Z,23.10
2023-01-04T17:20:23.581Z,23.00
2023-01-04T17:23:16.709Z,23.00
2023-01-04T17:26:11.778Z,23.00
2023-01-04T17:29:04.298Z,22.90
2023-01-04T17:31:58.727Z,22.90
2023-01-04T17:34:51.786Z,22.90
2023-01-04T17:37:45.251Z,22.80
2023-01-04T17:40:38.486Z,22.80
2023-01-04T17:43:31.475Z,22.80
2023-01-04T17:46:25.428Z,22.70
2023-01-04T17:49:25.546Z,22.80
2023-01-04T17:52:30.643Z,22.70
2023-01-04T17:55:24.653Z,22.70
2023-01-04T17:58:21.638Z,22.60
2023-01-04T18:01:18.828Z,22.60
2023-01-04T18:04:12.469Z,22.60
2023-01-04T18:07:07.145Z,22.50
2023-01-04T18:10:01.353Z,22.50
2023-01-04T18:12:54.767Z,22.50
2023-01-04T18:16:10.223Z,22.50
2023-01-04T18:19:01.394Z,22.50
2023-01-04T18:21:54.584Z,22.40
2023-01-04T18:24:48.825Z,22.40
2023-01-04T18:27:42.635Z,22.40
2023-01-04T18:30:36.928Z,22.40
2023-01-04T18:33:30.654Z,22.40
2023-01-04T18:36:29.806Z,22.40
2023-01-04T18:39:24.746Z,22.30
2023-01-04T18:42:18.860Z,22.30
2023-01-04T18:45:12.929Z,22.30
2023-01-04T18:48:06.936Z,22.30
2023-01-04T18:51:05.025Z,22.30
2023-01-04T18:53:58.484Z,22.20
2023-01-04T18:56:58.724Z,22.20
2023-01-04T18:59:55.639Z,22.20
2023-01-04T19:02:48.320Z,22.20
2023-01-04T19:05:41.908Z,22.20
2023-01-04T19:08:35.785Z,22.20
2023-01-04T19:11:28.682Z,22.10
2023-01-04T19:14:21.846Z,22.10
2023-01-04T19:17:16.987Z,22.10
2023-01-04T19:20:11.406Z,22.10
2023-01-04T19:23:04.499Z,22.10
2023-01-04T19:25:57.320Z,22.10
2023-01-04T19:28:50.949Z,22.10
2023-01-04T19:31:44.793Z,22.10
2023-01-04T19:34:39.464Z,22.10
2023-01-04T19:37:33.748Z,22.00
2023-01-04T19:40:27.281Z,22.00
2023-01-04T19:43:20.682Z,22.00
2023-01-04T19:46:14.003Z,22.00
2023-01-04T19:49:12.700Z,22.00
2023-01-04T19:52:10.449Z,22.00
2023-01-04T19:55:04.123Z,22.00
2023-01-04T19:57:57.504Z,22.00
2023-01-04T20:00:54.758Z,22.00
2023-01-04T20:03:49.364Z,22.00
2023-01-04T20:06:42.720Z,22.00
2023-01-04T20:09:37.180Z,21.90
2023-01-04T20:12:30.455Z,21.90
2023-01-04T20:15:23.439Z,21.90
2023-01-04T20:18:16.607Z,21.90
2023-01-04T20:21:11.432Z,21.90
2023-01-04T20:24:04.816Z,21.90
2023-01-04T20:26:58.942Z,21.90
2023-01-04T20:29:52.668Z,21.90
2023-01-04T20:32:45.622Z,21.80
2023-01-04T20:35:39.781Z,21.90
2023-01-04T20:38:37.720Z,21.90
2023-01-04T20:41:33.382Z,21.90
2023-01-04T20:44:27.356Z,21.90
2023-01-04T20:47:20.743Z,21.80
2023-01-04T20:50:13.781Z,21.90
2023-01-04T20:53:07.189Z,21.80
2023-01-04T20:56:06.180Z,21.80
2023-01-04T20:58:59.635Z,21.80
2023-01-04T21:01:54.557Z,21.80
2023-01-04T21:04:47.803Z,21.80
2023-01-04T21:07:40.533Z,21.80
2023-01-04T21:10:34.048Z,21.80
2023-01-04T21:13:28.842Z,21.80
2023-01-04T21:16:21.893Z,21.80
2023-01-04T21:19:16.416Z,21.80
2023-01-04T21:22:09.785Z,21.80
2023-01-04T21:25:02.946Z,21.80
2023-01-04T21:27:55.742Z,21.80
2023-01-04T21:30:49.203Z,21.70
2023-01-04T21:33:44.321Z,21.80
2023-01-04T21:36:38.760Z,21.80
2023-01-04T21:39:31.650Z,21.70
2023-01-04T21:42:24.869Z,21.70
2023-01-04T21:45:17.951Z,21.70
2023-01-04T21:48:10.956Z,21.70
2023-01-04T21:51:05.578Z,21.70
2023-01-04T21:54:01.522Z,21.70
2023-01-04T21:56:54.587Z,21.70
2023-01-04T21:59:48.162Z,21.70
2023-01-04T22:02:42.738Z,21.70
2023-01-04T22:05:35.625Z,21.70
2023-01-04T22:08:28.576Z,21.70
2023-01-04T22:11:23.522Z,21.70
2023-01-04T22:14:16.856Z,21.60
2023-01-04T22:17:10.082Z,21.60
2023-01-04T22:20:03.833Z,21.60
2023-01-04T22:22:56.965Z,21.60
2023-01-04T22:25:49.851Z,21.50
2023-01-04T22:28:44.124Z,21.50
2023-01-04T22:31:37.603Z,21.50
2023-01-04T22:34:30.516Z,21.50
2023-01-04T22:37:23.559Z,21.50
2023-01-04T22:40:16.930Z,21.50
2023-01-04T22:43:11.998Z,21.50
2023-01-04T22:46:09.035Z,21.50
2023-01-04T22:49:03.720Z,21.50
2023-01-04T22:51:57.536Z,21.40
2023-01-04T22:54:50.793Z,21.50
2023-01-04T22:57:44.902Z,21.40
2023-01-04T23:00:37.676Z,21.40
2023-01-04T23:03:33.774Z,21.40
2023-01-04T23:06:29.060Z,21.40
2023-01-04T23:09:22.691Z,21.40
2023-01-04T23:12:15.806Z,21.30
2023-01-04T23:15:10.259Z,21.30
2023-01-04T23:18:03.743Z,21.30
2023-01-04T23:20:58.263Z,21.30
2023-01-04T23:23:52.184Z,21.30
2023-01-04T23:26:47.150Z,21.30
2023-01-04T23:29:40.465Z,21.30
2023-01-04T23:32:33.758Z,21.30
2023-01-04T23:35:26.637Z,21.30
2023-01-04T23:38:21.115Z,21.30
2023-01-04T23:41:14.907Z,21.30
2023-01-04T23:44:08.141Z,21.20
2023-01-04T23:49:57.760Z,21.20
2023-01-04T23:52:52.558Z,21.20
2023-01-04T23:55:55.907Z,21.20
2023-01-04T23:58:48.486Z,21.20
